Time;durP1;ratioP1;P1;durP2;ratioP2;P2;SDS_P1;SDS_P2;PMS_P1;PMS_P2;Temp;Humidity;BMP_temperature;BMP_pressure;BME280_temperature;BME280_humidity;BME280_pressure;Samples;Min_cycle;Max_cycle;Signal;HPM_P1;HPM_P2
2023/10/08 00:00:39;;;;;;;3.27;1.00;;;;;;;13.44;79.88;99153.51;1816576;79;21085;-72
2023/10/08 00:02:34;;;;;;;4.85;1.17;;;;;;;13.42;77.57;99149.33;1812994;79;21034;-73
2023/10/08 00:05:03;;;;;;;3.85;1.05;;;;;;;13.34;74.20;99158.82;1816741;79;21081;-72
2023/10/08 00:07:32;;;;;;;4.85;1.20;;;;;;;13.28;67.17;99159.80;1816772;79;21058;-72
2023/10/08 00:10:02;;;;;;;2.98;0.88;;;;;;;13.21;64.22;99149.48;1827052;78;21060;-73
2023/10/08 00:12:31;;;;;;;5.65;1.15;;;;;;;13.13;62.34;99155.34;1831764;78;21061;-73
2023/10/08 00:15:00;;;;;;;3.85;1.20;;;;;;;13.04;62.23;99153.53;1831761;78;21045;-72
2023/10/08 00:17:31;;;;;;;4.58;1.22;;;;;;;12.93;60.88;99157.95;1831842;78;21060;-74
2023/10/08 00:20:00;;;;;;;4.65;1.15;;;;;;;12.87;60.31;99150.67;1831841;78;21064;-72
2023/10/08 00:22:35;;;;;;;4.95;1.05;;;;;;;12.82;59.93;99167.60;1831818;78;21461;-72
2023/10/08 00:25:00;;;;;;;7.55;1.27;;;;;;;12.76;59.65;99176.28;1831220;78;21057;-73
2023/10/08 00:27:38;;;;;;;4.78;1.20;;;;;;;12.69;58.46;99165.41;1831720;78;21488;-72
2023/10/08 00:30:00;;;;;;;5.10;1.30;;;;;;;12.64;57.93;99166.68;1830548;78;21438;-73
2023/10/08 00:32:29;;;;;;;3.17;1.07;;;;;;;12.59;57.62;99171.23;1831834;78;21017;-73
2023/10/08 00:34:59;;;;;;;4.87;1.20;;;;;;;12.55;57.42;99179.66;1831849;78;21017;-74
2023/10/08 00:37:29;;;;;;;4.05;1.25;;;;;;;12.48;57.07;99184.44;1831685;78;21041;-73
2023/10/08 00:39:57;;;;;;;2.62;0.90;;;;;;;12.44;57.44;99183.25;1831840;78;21057;-73
2023/10/08 00:42:28;;;;;;;4.60;1.12;;;;;;;12.38;56.61;99185.87;1831648;78;21449;-71
2023/10/08 00:44:57;;;;;;;7.58;1.00;;;;;;;12.34;57.72;99194.27;1831806;78;21057;-73
2023/10/08 00:47:26;;;;;;;8.83;1.20;;;;;;;12.31;57.55;99193.91;1831937;78;21021;-74
2023/10/08 00:50:05;;;;;;;4.17;1.00;;;;;;;12.25;57.40;99196.23;1832019;78;21445;-72
2023/10/08 00:52:29;;;;;;;2.77;1.10;;;;;;;12.18;56.96;99205.12;1830455;78;21736;-72
2023/10/08 00:57:35;;;;;;;6.37;1.40;;;;;;;12.00;57.62;99209.64;1831882;78;21021;-73
2023/10/08 01:00:03;;;;;;;3.20;0.95;;;;;;;11.97;58.51;99221.09;1831911;78;21444;-73
2023/10/08 01:02:46;;;;;;;2.83;1.10;;;;;;;11.89;56.51;99215.10;1832035;78;21060;-72
2023/10/08 01:05:23;;;;;;;2.70;1.07;;;;;;;11.78;56.50;99220.03;1831771;78;21065;-72
2023/10/08 01:07:51;;;;;;;5.58;1.10;;;;;;;11.68;56.97;99217.79;1831985;78;21074;-72
2023/10/08 01:10:20;;;;;;;2.60;1.00;;;;;;;11.59;57.37;99223.30;1831643;78;21045;-73
2023/10/08 01:15:24;;;;;;;2.70;0.90;;;;;;;11.42;58.72;99206.66;1831782;78;21096;-72
2023/10/08 01:18:00;;;;;;;4.00;1.30;;;;;;;11.27;59.18;99196.65;1831731;78;20978;-72
2023/10/08 01:20:38;;;;;;;2.95;0.90;;;;;;;11.20;59.86;99210.98;1831983;78;21096;-72
2023/10/08 01:23:13;;;;;;;3.45;1.10;;;;;;;11.10;60.24;99206.05;1804026;78;21013;-72
2023/10/08 01:25:45;;;;;;;2.92;1.00;;;;;;;11.01;60.58;99208.23;1831667;78;21033;-73
2023/10/08 01:28:22;;;;;;;2.62;1.17;;;;;;;10.95;61.07;99202.83;1831680;77;21017;-71
2023/10/08 01:30:47;;;;;;;2.33;0.90;;;;;;;10.92;61.76;99201.38;1831215;78;21438;-73
2023/10/08 01:33:20;;;;;;;2.72;1.15;;;;;;;10.91;62.16;99209.83;1832042;78;21429;-72
2023/10/08 01:35:51;;;;;;;2.52;1.20;;;;;;;10.87;62.26;99199.86;1831881;78;20985;-73
2023/10/08 01:38:23;;;;;;;3.05;1.00;;;;;;;10.84;62.42;99207.70;1831748;78;21617;-73
2023/10/08 01:40:50;;;;;;;2.95;1.17;;;;;;;10.79;62.25;99209.77;1831596;78;21013;-73
2023/10/08 01:43:20;;;;;;;2.62;1.10;;;;;;;10.76;62.59;99210.22;1831995;77;21027;-73
2023/10/08 01:45:51;;;;;;;3.87;1.15;;;;;;;10.74;62.61;99209.08;1831837;78;21053;-72
2023/10/08 01:48:20;;;;;;;2.58;1.10;;;;;;;10.75;62.88;99218.13;1831648;78;21515;-72
2023/10/08 01:50:51;;;;;;;4.83;1.10;;;;;;;10.73;62.46;99206.56;1831711;78;21072;-74
2023/10/08 01:53:20;;;;;;;5.60;0.90;;;;;;;10.68;62.12;99195.45;1831783;78;21024;-74
2023/10/08 01:55:49;;;;;;;4.40;1.10;;;;;;;10.67;62.69;99201.47;1831842;78;21046;-71
2023/10/08 01:58:18;;;;;;;3.05;1.20;;;;;;;10.69;62.53;99194.39;1831872;78;21016;-72
2023/10/08 02:00:46;;;;;;;3.00;1.10;;;;;;;10.70;62.41;99201.55;1804451;78;21446;-72
2023/10/08 02:03:17;;;;;;;2.85;0.90;;;;;;;10.72;62.31;99201.62;1831666;78;21489;-73
2023/10/08 02:05:47;;;;;;;3.02;1.10;;;;;;;10.70;62.21;99202.38;1831799;78;21433;-73
2023/10/08 02:08:18;;;;;;;3.20;1.17;;;;;;;10.70;62.40;99205.65;1831694;77;21076;-73
2023/10/08 02:10:47;;;;;;;3.33;1.12;;;;;;;10.72;62.31;99213.11;1831669;78;21053;-72
2023/10/08 02:13:16;;;;;;;2.17;0.80;;;;;;;10.73;62.17;99202.45;1832018;78;21060;-72
2023/10/08 02:15:53;;;;;;;4.37;1.30;;;;;;;10.73;62.15;99192.87;1831948;78;21017;-73
2023/10/08 02:18:23;;;;;;;3.58;1.10;;;;;;;10.71;62.22;99201.84;1831800;78;21045;-71
2023/10/08 02:20:52;;;;;;;5.50;1.20;;;;;;;10.68;62.07;99190.81;1831837;77;21092;-72
2023/10/08 02:23:21;;;;;;;2.77;0.98;;;;;;;10.67;62.26;99197.36;1831652;78;21041;-73
2023/10/08 02:25:50;;;;;;;3.77;1.20;;;;;;;10.66;62.68;99191.57;1831605;78;21049;-72
2023/10/08 02:28:20;;;;;;;3.02;1.07;;;;;;;10.65;62.58;99202.23;1831842;78;21077;-73
2023/10/08 02:30:49;;;;;;;3.33;1.12;;;;;;;10.62;62.78;99190.36;1831525;78;21485;-73
2023/10/08 02:33:19;;;;;;;3.47;1.27;;;;;;;10.63;63.28;99196.67;1831649;78;21523;-72
2023/10/08 02:35:49;;;;;;;3.12;0.95;;;;;;;10.66;63.58;99198.42;1831854;78;21056;-72
2023/10/08 02:38:21;;;;;;;3.12;1.10;;;;;;;10.67;63.69;99189.67;1831998;78;21033;-71
2023/10/08 02:40:54;;;;;;;4.70;1.17;;;;;;;10.66;63.72;99194.84;1831829;78;21049;-72
2023/10/08 02:43:21;;;;;;;3.80;1.00;;;;;;;10.67;64.01;99206.94;1831851;77;21080;-72
2023/10/08 02:45:49;;;;;;;4.60;1.40;;;;;;;10.70;64.17;99197.44;1831607;78;21022;-72
2023/10/08 02:48:20;;;;;;;3.08;1.00;;;;;;;10.71;64.15;99196.37;1831799;78;21073;-73
2023/10/08 02:50:49;;;;;;;3.98;1.12;;;;;;;10.72;64.12;99200.25;1831634;78;21045;-73
2023/10/08 02:53:25;;;;;;;2.33;1.00;;;;;;;10.73;64.12;99213.41;1831809;78;21041;-73
2023/10/08 02:55:52;;;;;;;2.67;1.02;;;;;;;10.73;64.28;99216.98;1831558;77;21053;-73
2023/10/08 02:58:20;;;;;;;2.92;1.00;;;;;;;10.76;64.47;99222.55;1831552;78;21461;-73
2023/10/08 03:00:49;;;;;;;5.15;1.30;;;;;;;10.79;64.52;99225.66;1831840;78;21001;-74
2023/10/08 03:03:18;;;;;;;5.03;1.15;;;;;;;10.82;64.70;99227.11;1831604;78;21512;-74
2023/10/08 03:05:51;;;;;;;4.22;1.12;;;;;;;10.83;64.64;99223.84;1831705;78;21085;-73
2023/10/08 03:08:20;;;;;;;2.00;0.90;;;;;;;10.85;64.70;99221.18;1831899;78;21018;-74
2023/10/08 03:10:55;;;;;;;4.10;1.20;;;;;;;10.87;64.87;99225.06;1831561;77;21477;-72
2023/10/08 03:13:26;;;;;;;4.08;1.52;;;;;;;10.86;64.54;99226.97;1831720;78;21103;-72
2023/10/08 03:18:37;;;;;;;4.28;1.20;;;;;;;10.78;64.79;99238.22;1831768;78;21049;-73
2023/10/08 03:21:43;;;;;;;4.58;1.37;;;;;;;10.76;65.12;99238.98;1831741;78;21044;-74
2023/10/08 03:23:58;;;;;;;4.87;1.12;;;;;;;10.76;65.18;99238.98;1828029;78;21029;-73
2023/10/08 03:26:33;;;;;;;2.85;1.20;;;;;;;10.75;65.25;99238.68;1831417;78;21092;-72
2023/10/08 03:29:15;;;;;;;3.45;1.00;;;;;;;10.76;65.58;99240.35;1831539;78;21009;-73
2023/10/08 03:34:19;;;;;;;2.62;1.25;;;;;;;10.76;65.02;99230.77;1831598;78;21021;-73
2023/10/08 03:36:49;;;;;;;2.42;1.12;;;;;;;10.75;65.30;99231.30;1831780;78;21084;-73
2023/10/08 03:39:18;;;;;;;2.87;1.00;;;;;;;10.76;64.73;99241.72;1831789;78;21076;-73
2023/10/08 03:42:07;;;;;;;2.55;1.00;;;;;;;10.73;64.30;99237.54;1831571;78;21017;-72
2023/10/08 03:44:30;;;;;;;3.17;0.90;;;;;;;10.72;62.04;99229.02;1830734;78;21441;-73
2023/10/08 03:46:59;;;;;;;3.25;1.10;;;;;;;10.67;59.34;99233.50;1831689;78;21052;-72
2023/10/08 03:49:31;;;;;;;1.67;0.70;;;;;;;10.64;57.51;99235.32;1831754;78;21021;-72
2023/10/08 03:51:58;;;;;;;1.95;0.72;;;;;;;10.65;56.73;99242.48;1831760;78;21092;-72
2023/10/08 03:54:29;;;;;;;3.12;1.00;;;;;;;10.63;55.71;99230.91;1831813;78;21489;-72
2023/10/08 03:56:58;;;;;;;4.00;0.78;;;;;;;10.61;54.96;99239.88;1831782;78;21056;-72
2023/10/08 03:59:30;;;;;;;4.53;1.00;;;;;;;10.57;54.15;99246.34;1831724;78;21013;-71
2023/10/08 04:02:22;;;;;;;3.65;1.00;;;;;;;10.58;54.59;99249.92;1831755;77;21079;-72
2023/10/08 04:04:53;;;;;;;2.42;0.80;;;;;;;10.56;53.66;99257.53;1830913;78;20997;-73
2023/10/08 04:12:44;;;;;;;2.02;0.78;;;;;;;10.48;53.15;99264.97;1816910;79;21006;-73
2023/10/08 04:15:16;;;;;;;2.85;0.85;;;;;;;10.45;52.85;99253.09;1816682;79;21018;-73
2023/10/08 04:17:44;;;;;;;2.02;0.70;;;;;;;10.42;52.81;99250.81;1816928;79;21045;-72
2023/10/08 04:20:33;;;;;;;2.05;0.70;;;;;;;10.38;52.75;99263.23;1816748;79;21010;-74
2023/10/08 04:23:18;;;;;;;1.80;0.55;;;;;;;10.36;53.33;99273.58;1816682;79;21042;-73
2023/10/08 04:25:43;;;;;;;2.67;0.90;;;;;;;10.37;53.52;99275.78;1815838;79;21085;-73
2023/10/08 04:28:14;;;;;;;2.42;0.70;;;;;;;10.35;53.11;99274.64;1816784;79;21057;-73
2023/10/08 04:30:45;;;;;;;1.90;0.60;;;;;;;10.35;53.19;99282.86;1816687;79;21484;-72
2023/10/08 04:33:14;;;;;;;2.47;0.78;;;;;;;10.33;53.12;99287.72;1816656;79;21018;-72
2023/10/08 04:35:55;;;;;;;7.00;0.90;;;;;;;10.33;53.56;99291.82;1816828;77;21066;-73
2023/10/08 04:38:23;;;;;;;3.83;0.90;;;;;;;10.35;53.23;99290.23;1816407;79;21018;-73
2023/10/08 04:40:52;;;;;;;1.62;0.90;;;;;;;10.32;53.43;99302.47;1816669;79;21085;-72
2023/10/08 04:43:28;;;;;;;1.67;0.65;;;;;;;10.32;53.29;99316.16;1785751;79;21050;-73
2023/10/08 04:45:58;;;;;;;5.65;1.30;;;;;;;10.29;53.51;99310.28;1816416;79;21026;-71
2023/10/08 04:48:31;;;;;;;4.08;0.98;;;;;;;10.27;53.69;99313.25;1816971;79;21030;-74
2023/10/08 04:51:01;;;;;;;2.40;0.82;;;;;;;10.25;53.79;99303.58;1816649;79;21029;-72
2023/10/08 04:53:40;;;;;;;3.55;0.80;;;;;;;10.25;54.41;99308.52;1816654;79;21573;-73
2023/10/08 04:56:13;;;;;;;;;;;;;;;10.25;54.43;99316.73;1819469;79;21089;-72
2023/10/08 04:58:48;;;;;;;2.52;0.72;;;;;;;10.26;54.49;99323.89;1816966;79;20183;-72
2023/10/08 05:01:18;;;;;;;2.47;1.00;;;;;;;10.24;53.70;99316.95;1816668;77;21085;-72
2023/10/08 05:17:22;;;;;;;2.10;1.00;;;;;;;10.18;53.63;99309.91;1816801;79;21081;-71
2023/10/08 05:19:56;;;;;;;4.78;1.12;;;;;;;10.21;53.26;99315.50;1815260;79;21073;-72
2023/10/08 05:30:41;;;;;;;2.80;0.98;;;;;;;10.20;52.71;99363.59;1816752;79;20257;-73
2023/10/08 05:33:23;;;;;;;2.47;0.70;;;;;;;10.20;52.18;99371.81;1816698;79;21065;-74
2023/10/08 05:38:23;;;;;;;1.67;0.75;;;;;;;10.26;51.48;99369.59;1816563;79;21006;-73
2023/10/08 05:54:36;;;;;;;2.55;0.90;;;;;;;10.12;49.35;99377.02;1788194;79;21006;-73
2023/10/08 06:05:22;;;;;;;3.62;0.90;;;;;;;10.05;49.23;99394.84;1816814;77;21022;-72
2023/10/08 06:18:29;;;;;;;1.82;0.80;;;;;;;10.08;49.15;99383.98;1816781;79;20995;-74
2023/10/08 06:21:08;;;;;;;3.92;1.10;;;;;;;10.08;49.22;99394.41;1816838;79;21066;-74
2023/10/08 06:23:41;;;;;;;3.42;1.05;;;;;;;10.07;49.49;99394.62;1816641;79;21041;-73
2023/10/08 06:28:41;;;;;;;5.75;1.00;;;;;;;10.04;49.46;99389.06;1816729;79;21081;-74
2023/10/08 06:31:16;;;;;;;3.92;1.17;;;;;;;10.04;50.10;99410.11;1816619;79;20994;-73
2023/10/08 06:33:44;;;;;;;2.75;0.90;;;;;;;10.02;49.89;99410.86;1816595;79;21050;-73
2023/10/08 06:36:15;;;;;;;1.60;0.75;;;;;;;9.99;50.32;99409.40;1816506;79;21497;-73
2023/10/08 06:38:48;;;;;;;3.65;0.90;;;;;;;9.98;50.49;99414.56;1816677;77;21022;-71
2023/10/08 06:44:02;;;;;;;4.25;0.80;;;;;;;9.99;50.44;99405.83;1815191;79;21463;-71
2023/10/08 06:46:25;;;;;;;2.12;0.70;;;;;;;9.97;50.64;99424.36;1814780;79;20990;-73
2023/10/08 06:48:53;;;;;;;1.55;0.70;;;;;;;9.99;50.71;99427.72;1816598;79;21628;-73
2023/10/08 06:51:25;;;;;;;1.77;0.85;;;;;;;10.01;50.81;99429.18;1816703;79;21050;-73
2023/10/08 06:53:54;;;;;;;1.47;0.88;;;;;;;10.00;50.47;99431.61;1816608;79;21006;-75
2023/10/08 06:56:24;;;;;;;2.05;0.80;;;;;;;9.97;50.61;99443.52;1816889;79;21101;-73
2023/10/08 06:58:53;;;;;;;1.75;0.90;;;;;;;9.97;50.74;99443.52;1816914;79;21025;-72
2023/10/08 07:01:22;;;;;;;3.47;0.90;;;;;;;9.97;49.94;99440.78;1816497;79;21026;-69
2023/10/08 07:04:03;;;;;;;2.65;0.82;;;;;;;9.93;49.48;99438.16;1816818;79;21073;-73
2023/10/08 07:06:25;;;;;;;2.30;0.90;;;;;;;9.88;49.71;99443.45;1815681;77;21030;-73
2023/10/08 07:08:55;;;;;;;5.42;1.60;;;;;;;9.87;50.17;99449.98;1816831;77;21041;-72
2023/10/08 07:11:26;;;;;;;3.30;1.00;;;;;;;9.88;50.47;99444.81;1816476;79;21038;-73
2023/10/08 07:13:55;;;;;;;5.45;0.98;;;;;;;9.91;50.67;99453.96;1816833;77;21084;-72
2023/10/08 07:16:27;;;;;;;2.45;1.10;;;;;;;9.90;50.51;99449.55;1816709;79;21053;-72
2023/10/08 07:19:01;;;;;;;2.87;0.75;;;;;;;9.92;50.91;99454.27;1816969;79;21085;-72
2023/10/08 07:21:29;;;;;;;2.67;0.75;;;;;;;9.94;50.99;99450.26;1816440;79;21041;-76
2023/10/08 07:24:04;;;;;;;4.95;0.90;;;;;;;9.95;50.91;99466.16;1816895;79;21071;-72
2023/10/08 07:26:46;;;;;;;2.30;0.95;;;;;;;9.94;50.34;99450.26;1816164;79;21504;-71
2023/10/08 07:29:17;;;;;;;1.72;0.70;;;;;;;9.91;50.56;99441.65;1816780;77;22025;-71
2023/10/08 07:31:49;;;;;;;2.27;1.10;;;;;;;9.89;50.38;99451.97;1816875;79;21053;-72
2023/10/08 07:34:25;;;;;;;2.00;0.72;;;;;;;9.88;51.05;99453.86;1816778;79;21410;-73
2023/10/08 07:36:50;;;;;;;3.75;0.85;;;;;;;9.88;51.12;99459.33;1816029;79;21050;-73
2023/10/08 07:42:05;;;;;;;2.87;1.00;;;;;;;9.88;50.80;99458.50;1816724;79;20975;-71
2023/10/08 07:44:41;;;;;;;2.83;0.80;;;;;;;9.88;51.12;99457.97;1816933;79;21026;-71
2023/10/08 07:47:11;;;;;;;3.12;1.07;;;;;;;9.89;50.86;99465.12;1816852;79;21112;-72
2023/10/08 07:49:44;;;;;;;4.75;1.27;;;;;;;9.93;50.92;99462.79;1816768;79;21054;-73
2023/10/08 07:52:15;;;;;;;4.05;1.05;;;;;;;9.93;51.08;99477.31;1816801;79;21026;-72
2023/10/08 07:54:42;;;;;;;1.77;0.85;;;;;;;9.95;50.70;99468.88;1816763;79;21020;-73
2023/10/08 07:57:12;;;;;;;2.00;0.70;;;;;;;9.96;51.03;99477.41;1816673;79;21025;-73
2023/10/08 07:59:48;;;;;;;1.67;0.70;;;;;;;9.99;50.61;99475.61;1816630;79;21073;-72
2023/10/08 08:02:17;;;;;;;4.60;0.90;;;;;;;10.00;50.71;99472.66;1816855;79;21089;-72
2023/10/08 08:04:50;;;;;;;3.25;0.80;;;;;;;10.03;50.96;99473.59;1816744;79;21478;-72
2023/10/08 08:07:16;;;;;;;2.83;0.85;;;;;;;10.10;50.68;99477.66;1811281;79;21066;-73
2023/10/08 08:09:59;;;;;;;2.75;0.72;;;;;;;10.18;51.01;99470.58;1771399;80;21040;-72
2023/10/08 08:12:32;;;;;;;5.08;1.05;;;;;;;10.27;51.05;99476.14;1800775;78;21128;-70
2023/10/08 08:15:00;;;;;;;2.22;0.82;;;;;;;10.50;50.18;99472.05;1799190;78;21050;-70
2023/10/08 08:17:30;;;;;;;3.92;0.90;;;;;;;10.68;50.02;99463.91;1825193;78;21050;-71
2023/10/08 08:20:06;;;;;;;2.85;0.85;;;;;;;10.78;49.97;99469.74;1755640;82;21069;-72
2023/10/08 08:22:40;;;;;;;4.30;0.95;;;;;;;10.84;49.08;99472.97;1755111;82;21027;-71
2023/10/08 08:25:26;;;;;;;6.28;0.80;;;;;;;10.80;48.04;99459.41;1758735;81;21446;-72
2023/10/08 08:27:49;;;;;;;2.45;0.75;;;;;;;10.72;48.78;99469.26;1791499;80;20975;-73
2023/10/08 08:30:18;;;;;;;2.75;0.93;;;;;;;10.77;49.01;99473.02;1761401;81;21433;-73
2023/10/08 08:32:48;;;;;;;1.52;0.72;;;;;;;10.85;48.30;99484.77;1792569;80;21019;-72
2023/10/08 08:35:20;;;;;;;3.20;0.90;;;;;;;10.85;48.54;99474.64;1760873;80;21042;-75
2023/10/08 08:37:52;;;;;;;2.65;1.00;;;;;;;10.94;48.58;99473.31;1792502;80;21065;-71
2023/10/08 08:40:21;;;;;;;2.40;0.90;;;;;;;11.09;49.08;99475.75;1761537;81;21018;-69
2023/10/08 08:42:52;;;;;;;1.00;0.70;;;;;;;11.20;47.76;99470.07;1763048;80;21050;-71
2023/10/08 08:45:24;;;;;;;2.22;0.82;;;;;;;11.27;47.89;99470.84;1759907;81;21077;-71
2023/10/08 08:47:53;;;;;;;2.25;0.62;;;;;;;11.35;47.53;99462.33;1729586;83;21125;-72
2023/10/08 08:50:23;;;;;;;3.10;0.65;;;;;;;11.38;47.10;99472.85;1760150;81;21065;-72
2023/10/08 08:52:52;;;;;;;5.65;1.10;;;;;;;11.32;46.56;99475.97;1731607;81;21034;-72
2023/10/08 08:55:22;;;;;;;1.30;0.68;;;;;;;11.26;45.75;99462.31;1776711;80;21010;-73
2023/10/08 08:57:53;;;;;;;1.52;0.70;;;;;;;11.20;46.08;99466.80;1779500;80;21070;-71
2023/10/08 09:00:25;;;;;;;4.78;0.80;;;;;;;11.20;46.49;99465.95;1759926;81;21398;-72
2023/10/08 09:02:53;;;;;;;3.05;1.10;;;;;;;11.22;46.34;99472.05;1784338;80;21023;-72
2023/10/08 09:05:25;;;;;;;3.30;0.98;;;;;;;11.21;46.20;99469.84;1792515;80;21509;-73
2023/10/08 09:08:05;;;;;;;2.67;0.80;;;;;;;11.29;46.42;99453.11;1792800;80;20991;-72
2023/10/08 09:10:51;;;;;;;2.33;0.90;;;;;;;11.43;46.21;99452.44;1780373;80;21070;-73
2023/10/08 09:13:11;;;;;;;4.60;0.80;;;;;;;11.55;45.28;99449.79;1748581;80;21115;-74
2023/10/08 09:15:40;;;;;;;2.95;0.82;;;;;;;11.57;43.58;99460.84;1797615;79;21046;-72
2023/10/08 09:18:09;;;;;;;2.77;0.80;;;;;;;11.53;42.97;99476.08;1816477;77;21037;-72
2023/10/08 09:20:47;;;;;;;1.00;0.78;;;;;;;11.41;42.92;99477.88;1815066;79;21034;-73
2023/10/08 09:23:17;;;;;;;2.62;0.70;;;;;;;11.29;43.55;99469.56;1800168;79;20986;-74
2023/10/08 09:25:49;;;;;;;2.27;0.65;;;;;;;11.25;43.84;99474.34;1800805;79;21013;-74
2023/10/08 09:28:17;;;;;;;1.35;0.80;;;;;;;11.22;42.76;99481.66;1790081;80;21466;-72
2023/10/08 09:30:48;;;;;;;1.70;0.55;;;;;;;11.20;42.58;99476.39;1784593;80;21002;-73
2023/10/08 09:33:17;;;;;;;1.82;0.90;;;;;;;11.19;42.01;99473.88;1784348;80;21050;-73
2023/10/08 09:35:46;;;;;;;3.35;1.20;;;;;;;11.21;42.18;99478.60;1784319;80;21559;-73
2023/10/08 09:38:22;;;;;;;4.42;1.40;;;;;;;11.22;42.40;99475.63;1784446;80;21069;-73
2023/10/08 09:40:45;;;;;;;4.40;1.07;;;;;;;11.21;42.37;99460.78;1783703;80;21074;-75
2023/10/08 09:43:15;;;;;;;2.72;0.70;;;;;;;11.22;42.39;99475.63;1784309;80;21066;-73
2023/10/08 09:45:57;;;;;;;1.05;0.72;;;;;;;11.24;42.21;99469.39;1730674;80;21486;-74
2023/10/08 09:48:30;;;;;;;2.08;0.80;;;;;;;11.30;41.83;99469.03;1784545;80;21109;-73
2023/10/08 09:50:59;;;;;;;1.12;0.57;;;;;;;11.35;41.76;99467.81;1784462;80;21073;-73
2023/10/08 09:53:39;;;;;;;2.42;0.78;;;;;;;11.40;41.69;99467.98;1784393;80;21038;-72
2023/10/08 09:56:17;;;;;;;4.87;0.72;;;;;;;11.45;41.54;99466.77;1784151;80;21078;-71
2023/10/08 09:58:49;;;;;;;2.83;0.70;;;;;;;11.55;40.82;99466.25;1784387;80;21073;-72
2023/10/08 10:01:19;;;;;;;2.45;0.80;;;;;;;11.62;40.40;99461.00;1784410;80;21057;-72
2023/10/08 10:03:49;;;;;;;0.90;0.45;;;;;;;11.68;40.03;99471.59;1784524;80;21081;-72
2023/10/08 10:06:18;;;;;;;3.72;0.80;;;;;;;11.69;39.28;99463.67;1754898;80;21085;-70
2023/10/08 10:08:48;;;;;;;2.65;0.75;;;;;;;11.71;38.04;99462.41;1784489;80;21037;-74
2023/10/08 10:11:17;;;;;;;1.00;0.60;;;;;;;11.73;36.74;99478.11;1784552;80;21069;-71
2023/10/08 10:13:52;;;;;;;2.85;0.60;;;;;;;11.76;38.33;99468.58;1784365;80;21014;-72
2023/10/08 10:16:24;;;;;;;1.35;0.70;;;;;;;11.82;38.35;99474.56;1773222;79;21039;-71
2023/10/08 10:18:57;;;;;;;2.17;0.80;;;;;;;11.84;38.01;99473.80;1810036;79;21000;-72
2023/10/08 10:21:31;;;;;;;3.52;0.90;;;;;;;11.85;38.32;99479.59;1741177;82;21913;-72
2023/10/08 10:23:59;;;;;;;1.22;0.60;;;;;;;11.89;38.64;99469.83;1741199;82;21091;-72
2023/10/08 10:26:34;;;;;;;2.40;0.72;;;;;;;11.90;37.12;99460.53;1741166;82;21032;-72
2023/10/08 10:29:20;;;;;;;3.85;0.90;;;;;;;11.85;38.16;99466.41;1741437;82;21086;-73
2023/10/08 10:31:56;;;;;;;2.85;0.80;;;;;;;11.83;37.97;99472.66;1741290;82;21047;-72
2023/10/08 10:34:30;;;;;;;2.62;0.72;;;;;;;11.82;37.71;99480.58;1741568;82;21082;-71
2023/10/08 10:37:02;;;;;;;1.72;0.68;;;;;;;11.77;36.41;99470.25;1741248;82;21028;-75
2023/10/08 10:39:32;;;;;;;2.80;0.55;;;;;;;11.70;35.68;99481.81;1712861;82;21071;-71
2023/10/08 10:42:01;;;;;;;2.95;0.78;;;;;;;11.63;35.14;99481.88;1741291;82;21067;-72
2023/10/08 10:44:38;;;;;;;2.65;1.05;;;;;;;11.56;34.61;99474.25;1741183;82;21083;-73
2023/10/08 10:52:34;;;;;;;2.00;0.75;;;;;;;11.51;35.33;99469.14;1741286;82;21480;-72
2023/10/08 10:57:44;;;;;;;2.72;0.78;;;;;;;11.63;34.72;99447.58;1741371;82;21032;-73
2023/10/08 11:03:04;;;;;;;3.35;0.57;;;;;;;11.82;34.00;99473.72;1746852;82;21031;-73
2023/10/08 11:05:37;;;;;;;1.75;0.68;;;;;;;11.88;32.25;99477.77;1747201;82;21031;-73
2023/10/08 11:08:07;;;;;;;1.72;0.60;;;;;;;11.90;32.23;99474.78;1747377;82;21011;-73
2023/10/08 11:10:46;;;;;;;2.00;0.60;;;;;;;11.87;32.62;99451.38;1816378;79;21029;-75
2023/10/08 11:13:17;;;;;;;2.20;0.60;;;;;;;11.86;33.07;99474.94;1817969;79;21105;-72
2023/10/08 11:15:51;;;;;;;2.50;0.60;;;;;;;11.84;33.67;99476.54;1805705;79;21536;-71
2023/10/08 11:18:22;;;;;;;3.90;0.70;;;;;;;11.88;33.80;99478.30;1787999;80;21181;-73
2023/10/08 11:21:02;;;;;;;2.85;0.65;;;;;;;11.89;32.99;99471.20;1788178;80;21085;-73
2023/10/08 11:23:35;;;;;;;3.33;0.50;;;;;;;11.86;32.84;99481.27;1787380;80;21085;-73
2023/10/08 11:26:05;;;;;;;4.70;0.60;;;;;;;11.82;31.40;99469.60;1787860;80;21128;-73
2023/10/08 11:28:42;;;;;;;3.33;0.75;;;;;;;11.74;32.02;99475.67;1788161;80;21018;-76
2023/10/08 11:31:14;;;;;;;2.60;0.65;;;;;;;11.69;32.19;99465.04;1788267;80;21069;-80
2023/10/08 11:33:55;;;;;;;3.47;0.95;;;;;;;11.64;32.39;99471.74;1788059;80;21042;-76
2023/10/08 11:36:37;;;;;;;1.75;0.55;;;;;;;11.62;32.75;99458.25;1787912;80;21477;-74
2023/10/08 11:39:21;;;;;;;2.92;0.70;;;;;;;11.62;33.57;99465.64;1787989;80;21563;-69
2023/10/08 11:44:19;;;;;;;4.65;0.70;;;;;;;11.60;33.66;99465.87;1758348;80;21034;-76
2023/10/08 11:46:51;;;;;;;2.95;0.82;;;;;;;11.63;33.07;99459.09;1788258;80;21010;-79
2023/10/08 11:49:18;;;;;;;2.67;0.65;;;;;;;11.63;33.23;99469.53;1788176;79;20998;-81
2023/10/08 11:51:47;;;;;;;1.37;0.40;;;;;;;11.67;34.19;99459.78;1788458;80;21026;-81
2023/10/08 11:54:16;;;;;;;1.80;0.75;;;;;;;11.77;34.01;99457.06;1788354;80;21057;-77
2023/10/08 11:56:47;;;;;;;1.50;0.60;;;;;;;11.85;33.28;99451.31;1788166;80;21513;-79
2023/10/08 11:59:18;;;;;;;1.95;0.60;;;;;;;11.92;32.20;99464.42;1788219;80;21105;-84
2023/10/08 12:01:48;;;;;;;2.17;0.60;;;;;;;11.96;31.33;99456.03;1800603;79;21057;-77
2023/10/08 12:04:17;;;;;;;0.60;0.40;;;;;;;11.96;31.20;99452.75;1820188;79;21089;-76
2023/10/08 12:06:46;;;;;;;1.25;0.47;;;;;;;11.95;31.23;99470.82;1820276;79;21061;-77
2023/10/08 12:09:15;;;;;;;1.65;0.50;;;;;;;11.94;30.61;99450.77;1820281;79;21005;-77
2023/10/08 12:11:44;;;;;;;2.17;0.70;;;;;;;11.95;30.98;99457.09;1820173;79;21077;-77
2023/10/08 12:14:14;;;;;;;3.42;0.75;;;;;;;11.96;29.91;99453.28;1820315;78;21080;-76
2023/10/08 12:16:45;;;;;;;2.65;0.50;;;;;;;11.93;30.24;99457.86;1793049;79;21070;-75
2023/10/08 12:19:17;;;;;;;1.50;0.40;;;;;;;11.94;30.02;99456.79;1788097;80;21010;-76
2023/10/08 12:21:47;;;;;;;2.92;0.57;;;;;;;11.92;30.56;99469.91;1788129;80;21080;-76
2023/10/08 12:24:17;;;;;;;2.08;0.50;;;;;;;11.91;30.21;99460.83;1787940;80;21473;-76
2023/10/08 12:26:46;;;;;;;1.72;0.50;;;;;;;11.89;30.14;99462.13;1788027;80;21566;-77
2023/10/08 12:29:17;;;;;;;1.92;0.70;;;;;;;11.85;29.86;99443.91;1788257;80;21049;-77
2023/10/08 12:31:48;;;;;;;2.58;0.70;;;;;;;11.85;30.37;99446.66;1788101;80;21021;-75
2023/10/08 12:34:17;;;;;;;3.08;1.00;;;;;;;11.86;30.37;99441.47;1788294;80;21034;-77
2023/10/08 12:36:47;;;;;;;3.15;1.07;;;;;;;11.85;30.22;99443.07;1787896;80;21053;-75
2023/10/08 12:39:16;;;;;;;2.45;0.95;;;;;;;11.85;30.86;99448.56;1788393;80;21092;-77
2023/10/08 12:41:45;;;;;;;2.30;0.90;;;;;;;11.90;31.12;99453.66;1788156;80;21434;-76
2023/10/08 12:44:15;;;;;;;4.85;1.17;;;;;;;11.96;31.26;99450.54;1788298;80;21095;-79
2023/10/08 12:46:48;;;;;;;2.35;0.60;;;;;;;11.99;31.69;99476.16;1788052;80;21085;-78
2023/10/08 12:49:15;;;;;;;1.62;0.65;;;;;;;11.96;30.40;99470.59;1787964;80;21018;-76
2023/10/08 12:51:45;;;;;;;3.98;0.70;;;;;;;11.90;30.50;99459.69;1788125;80;21022;-76
2023/10/08 12:54:21;;;;;;;1.35;0.60;;;;;;;11.84;30.32;99452.37;1788120;80;21030;-76
2023/10/08 12:56:45;;;;;;;2.35;1.00;;;;;;;11.78;30.36;99465.11;1787422;80;21066;-77
2023/10/08 12:59:21;;;;;;;1.42;0.57;;;;;;;11.74;30.66;99464.69;1787964;80;21021;-77
2023/10/08 13:01:56;;;;;;;2.72;0.55;;;;;;;11.72;30.42;99472.31;1801342;79;21087;-75
2023/10/08 13:04:28;;;;;;;2.92;0.60;;;;;;;11.68;30.21;99463.36;1820160;79;21465;-77
2023/10/08 13:07:01;;;;;;;2.70;0.80;;;;;;;11.64;30.72;99467.63;1820146;79;20998;-77
2023/10/08 13:09:36;;;;;;;2.40;0.65;;;;;;;11.61;30.55;99455.73;1820330;79;21117;-76
2023/10/08 13:12:04;;;;;;;2.22;0.72;;;;;;;11.60;31.06;99467.78;1820525;79;21061;-75
2023/10/08 13:14:34;;;;;;;3.17;0.80;;;;;;;11.61;31.28;99473.03;1829402;77;21365;-76
2023/10/08 13:17:03;;;;;;;1.87;0.57;;;;;;;11.62;29.99;99466.48;1825073;78;21042;-74
2023/10/08 13:19:33;;;;;;;1.22;0.50;;;;;;;11.61;29.99;99462.59;1824953;78;20991;-77
2023/10/08 13:22:06;;;;;;;1.70;0.60;;;;;;;11.59;29.92;99462.82;1755450;82;21028;-76
2023/10/08 13:24:35;;;;;;;2.87;0.62;;;;;;;11.59;30.26;99457.87;1755594;81;21101;-77
2023/10/08 13:27:06;;;;;;;4.72;1.00;;;;;;;11.59;30.63;99461.98;1755284;82;21553;-75